sensor_id;sensor_type;location;lat;lon;timestamp;pressure;altitude;pressure_sealevel;temperature;humidity
41044;BME280;51680;49.806;18.774;2023-04-01T00:00:21;95725.47;;;11.81;68.37
41044;BME280;51680;49.806;18.774;2023-04-01T00:03:23;95730.75;;;11.71;68.95
41044;BME280;51680;49.806;18.774;2023-04-01T00:06:27;95727.84;;;11.74;69.08
41044;BME280;51680;49.806;18.774;2023-04-01T00:09:30;95726.44;;;11.80;68.37
41044;BME280;51680;49.806;18.774;2023-04-01T00:12:32;95722.03;;;11.80;68.91
41044;BME280;51680;49.806;18.774;2023-04-01T00:15:34;95717.19;;;11.85;68.83
41044;BME280;51680;49.806;18.774;2023-04-01T00:18:36;95715.78;;;11.91;68.51
41044;BME280;51680;49.806;18.774;2023-04-01T00:21:37;95709.59;;;11.92;68.91
41044;BME280;51680;49.806;18.774;2023-04-01T00:24:41;95714.88;;;11.82;68.84
41044;BME280;51680;49.806;18.774;2023-04-01T00:27:42;95724.06;;;11.86;68.38
41044;BME280;51680;49.806;18.774;2023-04-01T00:30:45;95724.22;;;11.85;68.59
41044;BME280;51680;49.806;18.774;2023-04-01T00:33:47;95724.66;;;11.80;68.74
41044;BME280;51680;49.806;18.774;2023-04-01T00:36:49;95717.69;;;11.71;69.29
41044;BME280;51680;49.806;18.774;2023-04-01T00:39:54;95721.41;;;11.69;69.73
41044;BME280;51680;49.806;18.774;2023-04-01T00:43:17;95721.66;;;11.75;69.04
41044;BME280;51680;49.806;18.774;2023-04-01T00:46:20;95713.44;;;11.70;69.54
41044;BME280;51680;49.806;18.774;2023-04-01T00:49:23;95716.03;;;11.70;69.41
41044;BME280;51680;49.806;18.774;2023-04-01T00:52:26;95715.38;;;11.68;69.70
41044;BME280;51680;49.806;18.774;2023-04-01T00:55:32;95720.00;;;11.74;69.68
41044;BME280;51680;49.806;18.774;2023-04-01T00:58:38;95722.50;;;11.76;69.15
41044;BME280;51680;49.806;18.774;2023-04-01T01:01:41;95721.66;;;11.75;69.34
41044;BME280;51680;49.806;18.774;2023-04-01T01:04:43;95727.25;;;11.80;69.16
41044;BME280;51680;49.806;18.774;2023-04-01T01:07:48;95719.81;;;11.85;69.46
41044;BME280;51680;49.806;18.774;2023-04-01T01:10:56;95718.16;;;11.84;69.79
41044;BME280;51680;49.806;18.774;2023-04-01T01:14:02;95710.03;;;11.87;69.49
41044;BME280;51680;49.806;18.774;2023-04-01T01:17:13;95704.50;;;11.90;69.11
41044;BME280;51680;49.806;18.774;2023-04-01T01:20:36;95708.44;;;11.77;70.64
41044;BME280;51680;49.806;18.774;2023-04-01T01:24:13;95709.56;;;11.74;70.52
41044;BME280;51680;49.806;18.774;2023-04-01T01:27:20;95706.81;;;11.76;69.74
41044;BME280;51680;49.806;18.774;2023-04-01T01:30:36;95700.47;;;11.78;70.53
41044;BME280;51680;49.806;18.774;2023-04-01T01:33:55;95703.50;;;11.74;71.28
41044;BME280;51680;49.806;18.774;2023-04-01T01:37:05;95695.50;;;11.75;69.94
41044;BME280;51680;49.806;18.774;2023-04-01T01:40:11;95702.38;;;11.76;70.26
41044;BME280;51680;49.806;18.774;2023-04-01T01:43:18;95706.63;;;11.77;70.04
41044;BME280;51680;49.806;18.774;2023-04-01T01:46:24;95707.31;;;11.79;69.70
41044;BME280;51680;49.806;18.774;2023-04-01T01:49:28;95703.75;;;11.80;69.65
41044;BME280;51680;49.806;18.774;2023-04-01T01:52:33;95703.75;;;11.80;69.77
41044;BME280;51680;49.806;18.774;2023-04-01T01:55:37;95715.06;;;11.71;70.11
41044;BME280;51680;49.806;18.774;2023-04-01T01:58:43;95717.81;;;11.70;70.13
41044;BME280;51680;49.806;18.774;2023-04-01T02:01:51;95728.13;;;11.71;70.14
41044;BME280;51680;49.806;18.774;2023-04-01T02:04:55;95715.44;;;11.76;70.70
41044;BME280;51680;49.806;18.774;2023-04-01T02:08:02;95719.41;;;11.80;70.09
41044;BME280;51680;49.806;18.774;2023-04-01T02:11:09;95719.69;;;11.77;69.91
41044;BME280;51680;49.806;18.774;2023-04-01T02:14:16;95723.97;;;11.78;70.09
41044;BME280;51680;49.806;18.774;2023-04-01T02:17:21;95717.78;;;11.79;70.22
41044;BME280;51680;49.806;18.774;2023-04-01T02:20:27;95721.06;;;11.81;70.32
41044;BME280;51680;49.806;18.774;2023-04-01T02:23:34;95719.94;;;11.84;69.99
41044;BME280;51680;49.806;18.774;2023-04-01T02:26:37;95719.81;;;11.85;70.13
41044;BME280;51680;49.806;18.774;2023-04-01T02:29:39;95718.44;;;11.81;69.87
41044;BME280;51680;49.806;18.774;2023-04-01T02:32:42;95721.94;;;11.72;70.51
41044;BME280;51680;49.806;18.774;2023-04-01T02:35:44;95719.03;;;11.75;69.96
41044;BME280;51680;49.806;18.774;2023-04-01T02:38:48;95723.28;;;11.76;69.96
41044;BME280;51680;49.806;18.774;2023-04-01T02:41:51;95716.69;;;11.72;70.23
41044;BME280;51680;49.806;18.774;2023-04-01T02:44:52;95724.94;;;11.77;70.39
41044;BME280;51680;49.806;18.774;2023-04-01T02:47:54;95724.94;;;11.77;70.86
41044;BME280;51680;49.806;18.774;2023-04-01T02:50:56;95724.84;;;11.69;71.01
41044;BME280;51680;49.806;18.774;2023-04-01T02:53:59;95726.78;;;11.67;71.87
41044;BME280;51680;49.806;18.774;2023-04-01T02:57:02;95728.28;;;11.70;71.89
41044;BME280;51680;49.806;18.774;2023-04-01T03:00:06;95734.47;;;11.69;72.07
41044;BME280;51680;49.806;18.774;2023-04-01T03:03:11;95722.84;;;11.63;72.78
41044;BME280;51680;49.806;18.774;2023-04-01T03:06:15;95729.00;;;11.62;72.45
41044;BME280;51680;49.806;18.774;2023-04-01T03:09:18;95730.66;;;11.54;73.32
41044;BME280;51680;49.806;18.774;2023-04-01T03:12:20;95732.06;;;11.48;73.22
41044;BME280;51680;49.806;18.774;2023-04-01T03:15:25;95736.72;;;11.54;73.36
41044;BME280;51680;49.806;18.774;2023-04-01T03:18:28;95740.19;;;11.45;74.23
41044;BME280;51680;49.806;18.774;2023-04-01T03:21:31;95738.25;;;11.47;73.55
41044;BME280;51680;49.806;18.774;2023-04-01T03:24:34;95742.13;;;11.43;74.30
41044;BME280;51680;49.806;18.774;2023-04-01T03:27:36;95735.84;;;11.36;73.80
41044;BME280;51680;49.806;18.774;2023-04-01T03:30:38;95736.66;;;11.37;73.44
41044;BME280;51680;49.806;18.774;2023-04-01T03:33:41;95733.38;;;11.35;73.86
41044;BME280;51680;49.806;18.774;2023-04-01T03:36:42;95736.81;;;11.35;73.64
41044;BME280;51680;49.806;18.774;2023-04-01T03:39:46;95739.28;;;11.37;73.61
41044;BME280;51680;49.806;18.774;2023-04-01T03:42:48;95730.34;;;11.39;72.86
41044;BME280;51680;49.806;18.774;2023-04-01T03:45:51;95728.66;;;11.38;72.53
41044;BME280;51680;49.806;18.774;2023-04-01T03:48:52;95731.97;;;11.40;73.28
41044;BME280;51680;49.806;18.774;2023-04-01T03:51:54;95731.97;;;11.40;73.10
41044;BME280;51680;49.806;18.774;2023-04-01T03:54:58;95735.56;;;11.39;72.94
41044;BME280;51680;49.806;18.774;2023-04-01T03:58:00;95734.97;;;11.45;72.65
41044;BME280;51680;49.806;18.774;2023-04-01T04:01:02;95738.25;;;11.47;72.40
41044;BME280;51680;49.806;18.774;2023-04-01T04:04:06;95737.84;;;11.52;71.89
41044;BME280;51680;49.806;18.774;2023-04-01T04:07:08;95732.91;;;11.49;72.42
41044;BME280;51680;49.806;18.774;2023-04-01T04:10:31;95728.19;;;11.52;72.10
41044;BME280;51680;49.806;18.774;2023-04-01T04:13:33;95737.53;;;11.55;71.96
41044;BME280;51680;49.806;18.774;2023-04-01T04:16:36;95733.81;;;11.57;72.31
41044;BME280;51680;49.806;18.774;2023-04-01T04:19:39;95730.53;;;11.55;72.05
41044;BME280;51680;49.806;18.774;2023-04-01T04:22:40;95734.41;;;11.51;72.31
41044;BME280;51680;49.806;18.774;2023-04-01T04:25:55;95740.47;;;11.52;72.18
41044;BME280;51680;49.806;18.774;2023-04-01T04:28:57;95744.47;;;11.46;72.02
41044;BME280;51680;49.806;18.774;2023-04-01T04:31:59;95734.16;;;11.45;72.01
41044;BME280;51680;49.806;18.774;2023-04-01T04:35:02;95747.66;;;11.40;71.70
41044;BME280;51680;49.806;18.774;2023-04-01T04:38:04;95745.69;;;11.42;71.79
41044;BME280;51680;49.806;18.774;2023-04-01T04:41:10;95737.88;;;11.42;72.30
41044;BME280;51680;49.806;18.774;2023-04-01T04:44:12;95744.34;;;11.38;72.13
41044;BME280;51680;49.806;18.774;2023-04-01T04:47:14;95736.91;;;11.43;71.80
41044;BME280;51680;49.806;18.774;2023-04-01T04:50:16;95741.97;;;11.45;72.02
41044;BME280;51680;49.806;18.774;2023-04-01T04:53:18;95729.75;;;11.45;71.98
41044;BME280;51680;49.806;18.774;2023-04-01T04:56:22;95737.19;;;11.40;72.19
41044;BME280;51680;49.806;18.774;2023-04-01T04:59:38;95741.00;;;11.46;71.86
41044;BME280;51680;49.806;18.774;2023-04-01T05:02:50;95734.41;;;11.51;71.86
41044;BME280;51680;49.806;18.774;2023-04-01T05:05:53;95741.78;;;11.56;71.49
41044;BME280;51680;49.806;18.774;2023-04-01T05:08:55;95740.97;;;11.55;71.51
41044;BME280;51680;49.806;18.774;2023-04-01T05:11:58;95743.47;;;11.57;71.85
41044;BME280;51680;49.806;18.774;2023-04-01T05:15:06;95739.44;;;11.62;71.26
41044;BME280;51680;49.806;18.774;2023-04-01T05:18:08;95742.75;;;11.55;71.74
41044;BME280;51680;49.806;18.774;2023-04-01T05:21:12;95740.56;;;11.60;71.35
41044;BME280;51680;49.806;18.774;2023-04-01T05:24:14;95743.47;;;11.47;73.22
41044;BME280;51680;49.806;18.774;2023-04-01T05:27:18;95745.97;;;11.49;71.86
41044;BME280;51680;49.806;18.774;2023-04-01T05:30:20;95743.47;;;11.57;72.07
41044;BME280;51680;49.806;18.774;2023-04-01T05:33:34;95747.59;;;11.59;71.67
41044;BME280;51680;49.806;18.774;2023-04-01T05:36:36;95751.13;;;11.68;71.31
41044;BME280;51680;49.806;18.774;2023-04-01T05:39:39;95753.31;;;11.72;71.43
41044;BME280;51680;49.806;18.774;2023-04-01T05:42:43;95758.38;;;11.74;71.75
41044;BME280;51680;49.806;18.774;2023-04-01T05:45:45;95755.03;;;11.81;71.25
41044;BME280;51680;49.806;18.774;2023-04-01T05:49:07;95753.78;;;11.85;70.87
41044;BME280;51680;49.806;18.774;2023-04-01T05:52:10;95745.16;;;11.85;70.80
41044;BME280;51680;49.806;18.774;2023-04-01T05:55:12;95757.69;;;11.99;70.82
41044;BME280;51680;49.806;18.774;2023-04-01T05:58:15;95752.31;;;12.00;70.39
41044;BME280;51680;49.806;18.774;2023-04-01T06:01:20;95744.56;;;12.08;70.57
41044;BME280;51680;49.806;18.774;2023-04-01T06:04:22;95749.22;;;12.14;70.05
41044;BME280;51680;49.806;18.774;2023-04-01T06:07:24;95763.66;;;12.18;70.53
41044;BME280;51680;49.806;18.774;2023-04-01T06:10:55;95754.53;;;12.22;70.22
41044;BME280;51680;49.806;18.774;2023-04-01T06:14:15;95764.41;;;12.28;69.87
41044;BME280;51680;49.806;18.774;2023-04-01T06:17:37;95759.84;;;12.30;69.91
41044;BME280;51680;49.806;18.774;2023-04-01T06:20:46;95762.25;;;12.41;69.63
41044;BME280;51680;49.806;18.774;2023-04-01T06:23:59;95747.28;;;12.51;69.59
41044;BME280;51680;49.806;18.774;2023-04-01T06:27:16;95762.09;;;12.60;69.57
41044;BME280;51680;49.806;18.774;2023-04-01T06:30:33;95769.81;;;12.62;69.20
41044;BME280;51680;49.806;18.774;2023-04-01T06:33:52;95758.66;;;12.60;68.72
41044;BME280;51680;49.806;18.774;2023-04-01T06:37:16;95764.47;;;12.71;69.04
41044;BME280;51680;49.806;18.774;2023-04-01T06:40:51;95765.28;;;12.89;68.75
41044;BME280;51680;49.806;18.774;2023-04-01T06:44:09;95774.75;;;13.00;68.23
41044;BME280;51680;49.806;18.774;2023-04-01T06:47:46;95766.94;;;13.08;68.80
41044;BME280;51680;49.806;18.774;2023-04-01T06:51:17;95772.75;;;13.19;67.58
41044;BME280;51680;49.806;18.774;2023-04-01T06:54:44;95774.03;;;13.15;67.71
41044;BME280;51680;49.806;18.774;2023-04-01T06:58:13;95769.47;;;13.17;67.01
41044;BME280;51680;49.806;18.774;2023-04-01T07:01:23;95771.41;;;13.15;67.86
41044;BME280;51680;49.806;18.774;2023-04-01T07:04:30;95777.97;;;13.19;67.66
41044;BME280;51680;49.806;18.774;2023-04-01T07:07:35;95782.34;;;13.11;67.79
41044;BME280;51680;49.806;18.774;2023-04-01T07:10:47;95776.53;;;12.99;67.89
41044;BME280;51680;49.806;18.774;2023-04-01T07:14:15;95782.75;;;12.98;68.01
41044;BME280;51680;49.806;18.774;2023-04-01T07:17:22;95784.13;;;12.93;68.01
41044;BME280;51680;49.806;18.774;2023-04-01T07:20:28;95788.25;;;12.95;68.00
41044;BME280;51680;49.806;18.774;2023-04-01T07:23:33;95788.78;;;12.99;67.76
41044;BME280;51680;49.806;18.774;2023-04-01T07:26:44;95786.91;;;13.09;68.02
41044;BME280;51680;49.806;18.774;2023-04-01T07:29:49;95781.09;;;13.23;67.70
41044;BME280;51680;49.806;18.774;2023-04-01T07:32:55;95782.97;;;13.30;67.38
41044;BME280;51680;49.806;18.774;2023-04-01T07:36:07;95796.75;;;13.32;67.13
41044;BME280;51680;49.806;18.774;2023-04-01T07:39:19;95797.88;;;13.30;67.18
41044;BME280;51680;49.806;18.774;2023-04-01T07:42:57;95796.81;;;13.40;67.49
41044;BME280;51680;49.806;18.774;2023-04-01T07:46:17;95789.25;;;13.37;67.21
41044;BME280;51680;49.806;18.774;2023-04-01T07:49:25;95790.59;;;13.41;67.20
41044;BME280;51680;49.806;18.774;2023-04-01T07:52:35;95789.47;;;13.44;67.34
41044;BME280;51680;49.806;18.774;2023-04-01T07:56:05;95796.19;;;13.46;67.37
41044;BME280;51680;49.806;18.774;2023-04-01T07:59:15;95794.28;;;13.56;67.01
41044;BME280;51680;49.806;18.774;2023-04-01T08:02:40;95803.50;;;13.60;66.90
41044;BME280;51680;49.806;18.774;2023-04-01T08:05:52;95810.72;;;13.66;67.01
41044;BME280;51680;49.806;18.774;2023-04-01T08:09:03;95801.84;;;13.59;66.61
41044;BME280;51680;49.806;18.774;2023-04-01T08:12:37;95814.28;;;13.57;66.80
41044;BME280;51680;49.806;18.774;2023-04-01T08:16:09;95815.88;;;13.50;67.06
41044;BME280;51680;49.806;18.774;2023-04-01T08:19:31;95819.66;;;13.56;66.87
41044;BME280;51680;49.806;18.774;2023-04-01T08:22:42;95812.94;;;13.53;67.48
41044;BME280;51680;49.806;18.774;2023-04-01T08:25:56;95825.81;;;13.47;67.27
41044;BME280;51680;49.806;18.774;2023-04-01T08:29:08;95819.50;;;13.57;67.57
41044;BME280;51680;49.806;18.774;2023-04-01T08:32:15;95822.22;;;13.73;67.26
41044;BME280;51680;49.806;18.774;2023-04-01T08:35:26;95819.78;;;13.72;67.69
41044;BME280;51680;49.806;18.774;2023-04-01T08:38:32;95822.22;;;13.73;67.45
41044;BME280;51680;49.806;18.774;2023-04-01T08:41:50;95818.31;;;13.77;68.30
41044;BME280;51680;49.806;18.774;2023-04-01T08:45:44;95821.63;;;13.79;68.92
41044;BME280;51680;49.806;18.774;2023-04-01T08:49:04;95822.13;;;13.83;68.83
41044;BME280;51680;49.806;18.774;2023-04-01T08:52:24;95824.09;;;13.81;69.50
41044;BME280;51680;49.806;18.774;2023-04-01T08:55:40;95826.03;;;13.79;69.32
41044;BME280;51680;49.806;18.774;2023-04-01T08:59:00;95826.09;;;13.87;69.53
41044;BME280;51680;49.806;18.774;2023-04-01T09:02:25;95826.31;;;14.01;68.92
41044;BME280;51680;49.806;18.774;2023-04-01T09:09:40;95827.34;;;14.08;69.16
41044;BME280;51680;49.806;18.774;2023-04-01T09:16:35;95827.81;;;14.45;67.93
41044;BME280;51680;49.806;18.774;2023-04-01T09:19:54;95822.63;;;14.69;67.22
41044;BME280;51680;49.806;18.774;2023-04-01T09:23:15;95830.88;;;15.06;67.61
41044;BME280;51680;49.806;18.774;2023-04-01T09:30:22;95826.47;;;15.63;65.79
41044;BME280;51680;49.806;18.774;2023-04-01T09:34:02;95830.06;;;15.78;64.79
41044;BME280;51680;49.806;18.774;2023-04-01T09:37:35;95834.31;;;15.79;63.81
41044;BME280;51680;49.806;18.774;2023-04-01T09:40:48;95828.22;;;15.86;63.50
41044;BME280;51680;49.806;18.774;2023-04-01T09:44:06;95847.25;;;15.96;64.28
41044;BME280;51680;49.806;18.774;2023-04-01T09:47:33;95838.88;;;15.93;64.50
41044;BME280;51680;49.806;18.774;2023-04-01T09:50:48;95844.38;;;15.75;65.00
41044;BME280;51680;49.806;18.774;2023-04-01T09:54:02;95840.06;;;15.74;65.23
41044;BME280;51680;49.806;18.774;2023-04-01T09:57:32;95835.16;;;15.71;65.41
41044;BME280;51680;49.806;18.774;2023-04-01T10:01:05;95840.56;;;15.78;65.58
41044;BME280;51680;49.806;18.774;2023-04-01T10:04:55;95845.00;;;15.77;65.26
41044;BME280;51680;49.806;18.774;2023-04-01T10:08:30;95844.69;;;15.72;64.97
41044;BME280;51680;49.806;18.774;2023-04-01T10:12:29;95852.25;;;15.75;65.14
41044;BME280;51680;49.806;18.774;2023-04-01T10:15:59;95845.47;;;15.89;64.36
41044;BME280;51680;49.806;18.774;2023-04-01T10:19:28;95850.22;;;16.01;64.05
41044;BME280;51680;49.806;18.774;2023-04-01T10:23:02;95848.25;;;16.03;63.04
41044;BME280;51680;49.806;18.774;2023-04-01T10:30:48;95852.22;;;15.83;61.81
41044;BME280;51680;49.806;18.774;2023-04-01T10:38:18;95859.97;;;15.21;66.77
41044;BME280;51680;49.806;18.774;2023-04-01T10:45:49;95865.41;;;15.27;69.39
41044;BME280;51680;49.806;18.774;2023-04-01T10:49:46;95860.16;;;15.43;68.66
41044;BME280;51680;49.806;18.774;2023-04-01T10:53:31;95857.34;;;15.61;67.38
41044;BME280;51680;49.806;18.774;2023-04-01T10:56:59;95866.41;;;15.58;67.32
41044;BME280;51680;49.806;18.774;2023-04-01T11:00:26;95864.09;;;15.71;67.30
41044;BME280;51680;49.806;18.774;2023-04-01T11:04:25;95858.28;;;16.00;64.38
41044;BME280;51680;49.806;18.774;2023-04-01T11:08:07;95854.78;;;16.07;65.55
41044;BME280;51680;49.806;18.774;2023-04-01T11:15:20;95862.25;;;15.88;65.84
41044;BME280;51680;49.806;18.774;2023-04-01T11:19:03;95862.25;;;15.80;68.02
41044;BME280;51680;49.806;18.774;2023-04-01T11:22:44;95863.41;;;15.77;70.17
41044;BME280;51680;49.806;18.774;2023-04-01T11:26:02;95857.81;;;15.88;70.41
41044;BME280;51680;49.806;18.774;2023-04-01T11:29:39;95860.09;;;15.91;69.48
41044;BME280;51680;49.806;18.774;2023-04-01T11:33:01;95857.47;;;15.99;68.70
41044;BME280;51680;49.806;18.774;2023-04-01T11:36:11;95852.00;;;16.01;67.49
41044;BME280;51680;49.806;18.774;2023-04-01T11:39:24;95857.84;;;15.80;67.46
41044;BME280;51680;49.806;18.774;2023-04-01T11:42:43;95854.88;;;15.59;67.74
41044;BME280;51680;49.806;18.774;2023-04-01T11:46:10;95864.44;;;15.44;68.61
41044;BME280;51680;49.806;18.774;2023-04-01T11:49:25;95865.75;;;15.40;67.40
41044;BME280;51680;49.806;18.774;2023-04-01T11:53:02;95862.00;;;15.35;68.27
41044;BME280;51680;49.806;18.774;2023-04-01T11:56:19;95857.22;;;15.38;67.99
41044;BME280;51680;49.806;18.774;2023-04-01T11:59:50;95854.38;;;15.32;67.88
41044;BME280;51680;49.806;18.774;2023-04-01T12:03:12;95859.47;;;15.25;67.04
41044;BME280;51680;49.806;18.774;2023-04-01T12:06:21;95861.59;;;15.14;67.05
41044;BME280;51680;49.806;18.774;2023-04-01T12:09:33;95860.94;;;14.96;67.88
41044;BME280;51680;49.806;18.774;2023-04-01T12:12:46;95865.66;;;14.76;69.28
41044;BME280;51680;49.806;18.774;2023-04-01T12:16:12;95859.91;;;14.73;69.80
41044;BME280;51680;49.806;18.774;2023-04-01T12:19:19;95860.38;;;14.60;69.09
41044;BME280;51680;49.806;18.774;2023-04-01T12:22:31;95870.38;;;14.65;68.78
41044;BME280;51680;49.806;18.774;2023-04-01T12:25:58;95862.97;;;14.52;68.97
41044;BME280;51680;49.806;18.774;2023-04-01T12:29:17;95870.31;;;14.41;69.64
41044;BME280;51680;49.806;18.774;2023-04-01T12:32:28;95868.97;;;14.37;69.43
41044;BME280;51680;49.806;18.774;2023-04-01T12:35:44;95864.41;;;14.47;69.59
41044;BME280;51680;49.806;18.774;2023-04-01T12:39:11;95862.34;;;14.66;68.94
41044;BME280;51680;49.806;18.774;2023-04-01T12:42:32;95865.50;;;14.78;68.99
41044;BME280;51680;49.806;18.774;2023-04-01T12:45:42;95872.22;;;14.88;68.35
41044;BME280;51680;49.806;18.774;2023-04-01T12:49:06;95861.44;;;15.07;66.96
41044;BME280;51680;49.806;18.774;2023-04-01T12:52:12;95868.19;;;15.18;68.03
41044;BME280;51680;49.806;18.774;2023-04-01T12:55:38;95874.97;;;15.36;69.01
41044;BME280;51680;49.806;18.774;2023-04-01T12:59:07;95877.22;;;15.31;67.77
41044;BME280;51680;49.806;18.774;2023-04-01T13:02:25;95877.38;;;15.14;68.05
41044;BME280;51680;49.806;18.774;2023-04-01T13:05:44;95881.50;;;15.08;69.37
41044;BME280;51680;49.806;18.774;2023-04-01T13:08:59;95875.72;;;15.05;69.28
41044;BME280;51680;49.806;18.774;2023-04-01T13:12:23;95880.63;;;14.92;69.60
41044;BME280;51680;49.806;18.774;2023-04-01T13:15:35;95881.59;;;14.91;69.82
41044;BME280;51680;49.806;18.774;2023-04-01T13:18:52;95882.09;;;14.86;69.55
41044;BME280;51680;49.806;18.774;2023-04-01T13:22:01;95882.09;;;14.86;69.72
41044;BME280;51680;49.806;18.774;2023-04-01T13:25:10;95891.75;;;14.70;70.20
41044;BME280;51680;49.806;18.774;2023-04-01T13:28:20;95896.16;;;14.69;70.68
41044;BME280;51680;49.806;18.774;2023-04-01T13:31:35;95891.28;;;14.74;71.59
41044;BME280;51680;49.806;18.774;2023-04-01T13:35:06;95894.38;;;14.70;71.65
41044;BME280;51680;49.806;18.774;2023-04-01T13:38:27;95903.69;;;14.64;71.47
41044;BME280;51680;49.806;18.774;2023-04-01T13:45:00;95898.13;;;14.67;71.06
41044;BME280;51680;49.806;18.774;2023-04-01T13:48:28;95903.88;;;14.71;72.14
41044;BME280;51680;49.806;18.774;2023-04-01T13:51:55;95906.38;;;14.80;72.03
41044;BME280;51680;49.806;18.774;2023-04-01T13:58:38;95905.59;;;14.88;72.24
41044;BME280;51680;49.806;18.774;2023-04-01T14:01:49;95903.47;;;14.91;71.83
41044;BME280;51680;49.806;18.774;2023-04-01T14:05:00;95905.78;;;14.94;71.83
41044;BME280;51680;49.806;18.774;2023-04-01T14:08:20;95907.41;;;14.95;72.72
41044;BME280;51680;49.806;18.774;2023-04-01T14:11:29;95909.88;;;14.97;72.65
41044;BME280;51680;49.806;18.774;2023-04-01T14:14:45;95911.53;;;14.98;73.35
41044;BME280;51680;49.806;18.774;2023-04-01T14:17:59;95924.16;;;14.94;73.36
41044;BME280;51680;49.806;18.774;2023-04-01T14:21:14;95919.19;;;14.83;73.12
41044;BME280;51680;49.806;18.774;2023-04-01T14:24:36;95919.16;;;14.67;72.66
41044;BME280;51680;49.806;18.774;2023-04-01T14:27:54;95920.34;;;14.39;73.91
41044;BME280;51680;49.806;18.774;2023-04-01T14:31:18;95920.16;;;14.07;74.79
41044;BME280;51680;49.806;18.774;2023-04-01T14:34:37;95911.50;;;13.89;74.94
41044;BME280;51680;49.806;18.774;2023-04-01T14:41:20;95913.66;;;13.94;76.12
41044;BME280;51680;49.806;18.774;2023-04-01T14:44:44;95902.75;;;14.06;76.19
41044;BME280;51680;49.806;18.774;2023-04-01T14:47:53;95903.59;;;14.32;75.06
41044;BME280;51680;49.806;18.774;2023-04-01T14:51:03;95901.88;;;14.57;74.85
41044;BME280;51680;49.806;18.774;2023-04-01T14:54:13;95898.81;;;14.77;74.13
41044;BME280;51680;49.806;18.774;2023-04-01T14:57:26;95903.28;;;14.77;73.62
41044;BME280;51680;49.806;18.774;2023-04-01T15:00:46;95894.91;;;14.81;74.69
41044;BME280;51680;49.806;18.774;2023-04-01T15:03:54;95900.66;;;14.77;74.76
41044;BME280;51680;49.806;18.774;2023-04-01T15:07:09;95896.84;;;14.71;74.36
41044;BME280;51680;49.806;18.774;2023-04-01T15:13:58;95895.25;;;15.02;72.91
41044;BME280;51680;49.806;18.774;2023-04-01T15:17:14;95899.72;;;15.02;73.45
41044;BME280;51680;49.806;18.774;2023-04-01T15:20:45;95900.84;;;15.07;74.50
41044;BME280;51680;49.806;18.774;2023-04-01T15:23:57;95908.88;;;14.90;74.30
41044;BME280;51680;49.806;18.774;2023-04-01T15:27:25;95905.41;;;14.81;74.35
41044;BME280;51680;49.806;18.774;2023-04-01T15:30:56;95904.72;;;14.71;74.40
41044;BME280;51680;49.806;18.774;2023-04-01T15:34:15;95904.41;;;14.74;74.31
41044;BME280;51680;49.806;18.774;2023-04-01T15:37:28;95906.09;;;14.91;73.43
41044;BME280;51680;49.806;18.774;2023-04-01T15:40:38;95903.63;;;14.98;72.26
41044;BME280;51680;49.806;18.774;2023-04-01T15:43:46;95908.06;;;14.89;73.31
41044;BME280;51680;49.806;18.774;2023-04-01T15:46:51;95907.09;;;14.98;71.14
41044;BME280;51680;49.806;18.774;2023-04-01T15:49:53;95910.69;;;14.89;70.64
41044;BME280;51680;49.806;18.774;2023-04-01T15:53:03;95908.25;;;14.96;69.62
41044;BME280;51680;49.806;18.774;2023-04-01T15:56:17;95919.59;;;15.04;68.75
41044;BME280;51680;49.806;18.774;2023-04-01T15:59:41;95923.84;;;15.05;68.26
41044;BME280;51680;49.806;18.774;2023-04-01T16:02:52;95925.50;;;14.98;68.38
41044;BME280;51680;49.806;18.774;2023-04-01T16:09:43;95922.84;;;14.90;65.99
41044;BME280;51680;49.806;18.774;2023-04-01T16:12:57;95928.56;;;14.86;67.79
41044;BME280;51680;49.806;18.774;2023-04-01T16:16:14;95933.31;;;14.82;67.14
41044;BME280;51680;49.806;18.774;2023-04-01T16:19:37;95941.88;;;14.84;67.64
41044;BME280;51680;49.806;18.774;2023-04-01T16:22:49;95944.66;;;14.83;67.71
41044;BME280;51680;49.806;18.774;2023-04-01T16:26:01;95954.81;;;14.78;67.79
41044;BME280;51680;49.806;18.774;2023-04-01T16:29:10;95959.91;;;14.79;67.59
41044;BME280;51680;49.806;18.774;2023-04-01T16:32:31;95960.72;;;14.80;67.52
41044;BME280;51680;49.806;18.774;2023-04-01T16:35:42;95969.44;;;14.80;67.44
41044;BME280;51680;49.806;18.774;2023-04-01T16:38:51;95966.56;;;14.58;66.14
41044;BME280;51680;49.806;18.774;2023-04-01T16:42:19;95975.22;;;14.50;66.51
41044;BME280;51680;49.806;18.774;2023-04-01T16:45:30;95972.13;;;14.29;66.40
41044;BME280;51680;49.806;18.774;2023-04-01T16:48:49;95972.00;;;14.13;67.55
41044;BME280;51680;49.806;18.774;2023-04-01T16:52:04;95985.28;;;14.12;67.84
41044;BME280;51680;49.806;18.774;2023-04-01T16:55:16;95999.78;;;13.98;69.04
41044;BME280;51680;49.806;18.774;2023-04-01T16:58:24;96008.44;;;13.91;70.02
41044;BME280;51680;49.806;18.774;2023-04-01T17:01:29;96013.44;;;13.84;70.52
41044;BME280;51680;49.806;18.774;2023-04-01T17:04:35;96028.97;;;13.78;71.23
41044;BME280;51680;49.806;18.774;2023-04-01T17:07:47;96039.00;;;13.65;72.95
41044;BME280;51680;49.806;18.774;2023-04-01T17:10:52;96047.63;;;13.57;73.71
41044;BME280;51680;49.806;18.774;2023-04-01T17:14:07;96053.09;;;13.46;74.89
41044;BME280;51680;49.806;18.774;2023-04-01T17:17:29;96052.00;;;13.39;76.06
41044;BME280;51680;49.806;18.774;2023-04-01T17:20:40;96061.22;;;13.43;75.44
41044;BME280;51680;49.806;18.774;2023-04-01T17:23:48;96074.09;;;13.37;76.39
41044;BME280;51680;49.806;18.774;2023-04-01T17:26:56;96064.34;;;13.29;75.65
41044;BME280;51680;49.806;18.774;2023-04-01T17:30:27;96080.38;;;13.26;77.19
41044;BME280;51680;49.806;18.774;2023-04-01T17:33:51;96070.91;;;13.16;77.94
41044;BME280;51680;49.806;18.774;2023-04-01T17:37:09;96073.69;;;13.14;76.75